createdAt,value
2018-05-01T00:00:40.146Z,0.00
2018-05-01T00:01:41.015Z,0.00
2018-05-01T00:02:40.170Z,0.00
2018-05-01T00:03:40.182Z,0.00
2018-05-01T00:04:40.267Z,0.00
2018-05-01T00:05:40.118Z,0.00
2018-05-01T00:06:40.256Z,0.00
2018-05-01T00:07:40.115Z,0.00
2018-05-01T00:08:40.124Z,0.00
2018-05-01T00:09:40.187Z,0.00
2018-05-01T00:10:40.173Z,0.00
2018-05-01T00:11:40.138Z,0.00
2018-05-01T00:12:40.158Z,0.00
2018-05-01T00:13:40.148Z,0.00
2018-05-01T00:14:40.188Z,0.00
2018-05-01T00:15:40.132Z,0.00
2018-05-01T00:16:40.145Z,0.00
2018-05-01T00:17:40.108Z,0.00
2018-05-01T00:18:40.230Z,0.00
2018-05-01T00:19:40.139Z,0.00
2018-05-01T00:20:40.119Z,0.00
2018-05-01T00:21:40.171Z,0.00
2018-05-01T00:22:40.221Z,0.00
2018-05-01T00:23:40.176Z,0.00
2018-05-01T00:24:40.354Z,0.00
2018-05-01T00:25:40.145Z,0.00
2018-05-01T00:26:40.101Z,0.00
2018-05-01T00:27:40.119Z,0.00
2018-05-01T00:28:40.110Z,0.00
2018-05-01T00:29:41.103Z,0.00
2018-05-01T00:30:40.138Z,0.00
2018-05-01T00:31:40.135Z,0.00
2018-05-01T00:32:40.264Z,0.00
2018-05-01T00:33:40.175Z,0.00
2018-05-01T00:34:40.161Z,0.00
2018-05-01T00:35:40.132Z,0.00
2018-05-01T00:36:40.140Z,0.00
2018-05-01T00:37:40.129Z,0.00
2018-05-01T00:38:40.210Z,0.00
2018-05-01T00:39:40.147Z,0.00
2018-05-01T00:40:40.204Z,0.00
2018-05-01T00:41:40.087Z,0.00
2018-05-01T00:42:40.142Z,0.00
2018-05-01T00:43:40.156Z,0.00
2018-05-01T00:44:40.103Z,0.00
2018-05-01T00:45:40.093Z,0.00
2018-05-01T00:46:40.211Z,0.00
2018-05-01T00:47:40.147Z,0.00
2018-05-01T00:48:40.144Z,0.00
2018-05-01T00:49:40.112Z,0.00
2018-05-01T00:50:40.189Z,0.00
2018-05-01T00:51:40.073Z,0.00
2018-05-01T00:52:40.166Z,0.00
2018-05-01T00:53:40.053Z,0.00
2018-05-01T00:54:40.084Z,0.00
2018-05-01T00:55:40.069Z,0.00
2018-05-01T00:56:40.178Z,0.00
2018-05-01T00:57:40.140Z,0.00
2018-05-01T00:58:43.116Z,0.00
2018-05-01T00:59:40.141Z,0.00
2018-05-01T01:00:40.176Z,0.00
2018-05-01T01:01:40.104Z,0.00
2018-05-01T01:02:40.139Z,0.00
2018-05-01T01:03:40.203Z,0.00
2018-05-01T01:04:40.303Z,0.00
2018-05-01T01:05:40.171Z,0.00
2018-05-01T01:06:40.093Z,0.00
2018-05-01T01:07:40.237Z,0.00
2018-05-01T01:08:40.145Z,0.00
2018-05-01T01:09:40.186Z,0.00
2018-05-01T01:10:40.130Z,0.00
2018-05-01T01:11:40.134Z,0.00
2018-05-01T01:12:40.158Z,0.00
2018-05-01T01:13:40.078Z,0.00
2018-05-01T01:14:40.140Z,0.00
2018-05-01T01:15:40.089Z,0.00
2018-05-01T01:16:40.120Z,0.00
2018-05-01T01:17:40.910Z,0.00
2018-05-01T01:18:40.138Z,0.00
2018-05-01T01:19:40.106Z,0.00
2018-05-01T01:20:40.330Z,0.00
2018-05-01T01:21:40.088Z,0.00
2018-05-01T01:22:40.156Z,0.00
2018-05-01T01:23:40.166Z,0.00
2018-05-01T01:24:40.316Z,0.00
2018-05-01T01:25:40.103Z,0.00
2018-05-01T01:26:40.210Z,0.00
2018-05-01T01:27:40.097Z,0.00
2018-05-01T01:28:40.185Z,0.00
2018-05-01T01:29:40.156Z,0.00
2018-05-01T01:30:40.167Z,0.00
2018-05-01T01:31:40.081Z,0.00
2018-05-01T01:32:40.102Z,0.00
2018-05-01T01:33:40.336Z,0.00
2018-05-01T01:34:40.125Z,0.00
2018-05-01T01:35:40.110Z,0.00
2018-05-01T01:36:40.058Z,0.00
2018-05-01T01:37:40.484Z,0.00
2018-05-01T01:38:40.071Z,0.00
2018-05-01T01:39:40.216Z,0.00
2018-05-01T01:40:40.082Z,0.00
2018-05-01T01:41:40.118Z,0.00
2018-05-01T01:42:40.169Z,0.00
2018-05-01T01:43:40.135Z,0.00
2018-05-01T01:44:40.119Z,0.00
2018-05-01T01:45:40.198Z,0.00
2018-05-01T01:46:40.153Z,0.00
2018-05-01T01:47:40.129Z,0.00
2018-05-01T01:48:40.095Z,0.00
2018-05-01T01:49:40.140Z,0.00
2018-05-01T01:50:40.150Z,0.00
2018-05-01T01:51:40.120Z,0.00
2018-05-01T01:52:40.929Z,0.00
2018-05-01T01:53:40.051Z,0.00
2018-05-01T01:54:40.086Z,0.00
2018-05-01T01:55:40.161Z,0.00
2018-05-01T01:56:40.187Z,0.00
2018-05-01T01:57:40.189Z,0.00
2018-05-01T01:58:40.113Z,0.00
2018-05-01T01:59:40.108Z,0.00
2018-05-01T02:00:40.130Z,0.00
2018-05-01T02:01:40.179Z,0.00
2018-05-01T02:02:40.127Z,0.00
2018-05-01T02:03:40.108Z,0.00
2018-05-01T02:04:40.303Z,0.00
2018-05-01T02:05:40.155Z,0.00
2018-05-01T02:06:40.167Z,0.00
2018-05-01T02:07:40.054Z,0.00
2018-05-01T02:08:40.164Z,0.00
2018-05-01T02:09:40.072Z,0.00
2018-05-01T02:10:40.202Z,0.00
2018-05-01T02:11:40.346Z,0.00
2018-05-01T02:12:40.107Z,0.00
2018-05-01T02:13:40.063Z,0.00
2018-05-01T02:14:40.118Z,0.00
2018-05-01T02:15:40.145Z,0.00
2018-05-01T02:16:40.129Z,0.00
2018-05-01T02:17:40.166Z,0.00
2018-05-01T02:18:40.149Z,0.00
2018-05-01T02:19:40.179Z,0.00
2018-05-01T02:20:40.263Z,0.00
2018-05-01T02:21:40.267Z,0.00
2018-05-01T02:22:40.114Z,0.00
2018-05-01T02:23:40.121Z,0.00
2018-05-01T02:24:40.089Z,0.00
2018-05-01T02:25:40.179Z,0.00
2018-05-01T02:26:40.185Z,0.00
2018-05-01T02:27:40.170Z,0.00
2018-05-01T02:28:40.063Z,0.00
2018-05-01T02:29:40.192Z,0.00
2018-05-01T02:30:40.943Z,0.00
2018-05-01T02:31:40.222Z,0.00
2018-05-01T02:32:40.432Z,0.00
2018-05-01T02:33:41.163Z,0.00
2018-05-01T02:34:40.207Z,0.00
2018-05-01T02:35:40.154Z,0.00
2018-05-01T02:36:40.181Z,0.00
2018-05-01T02:37:40.104Z,0.00
2018-05-01T02:38:40.082Z,0.00
2018-05-01T02:39:40.229Z,0.00
2018-05-01T02:40:40.300Z,0.00
2018-05-01T02:41:40.356Z,0.00
2018-05-01T02:42:40.147Z,0.00
2018-05-01T02:43:40.122Z,0.00
2018-05-01T02:44:40.092Z,0.00
2018-05-01T02:45:40.089Z,0.00
2018-05-01T02:46:40.216Z,0.00
2018-05-01T02:47:40.145Z,0.00
2018-05-01T02:48:40.116Z,0.00
2018-05-01T02:49:40.123Z,0.00
2018-05-01T02:50:40.233Z,0.00
2018-05-01T02:51:40.064Z,0.00
2018-05-01T02:52:40.127Z,0.00
2018-05-01T02:53:40.229Z,0.00
2018-05-01T02:54:40.119Z,0.00
2018-05-01T02:55:40.109Z,0.00
2018-05-01T02:56:40.082Z,0.00
2018-05-01T02:57:40.171Z,0.00
2018-05-01T02:58:40.163Z,0.00
2018-05-01T02:59:40.117Z,0.00
2018-05-01T03:00:40.152Z,0.00
2018-05-01T03:01:40.101Z,0.00
2018-05-01T03:02:40.127Z,0.00
2018-05-01T03:03:40.043Z,0.00
2018-05-01T03:04:40.104Z,0.00
2018-05-01T03:05:40.075Z,0.00
2018-05-01T03:06:40.114Z,0.00
2018-05-01T03:07:40.162Z,0.00
2018-05-01T03:08:40.099Z,0.00
2018-05-01T03:09:40.059Z,0.00
2018-05-01T03:10:40.160Z,0.00
2018-05-01T03:11:40.260Z,0.00
2018-05-01T03:12:40.105Z,0.00
2018-05-01T03:13:40.189Z,0.00
2018-05-01T03:14:41.742Z,0.00
2018-05-01T03:15:40.209Z,0.00
2018-05-01T03:16:40.091Z,0.00
2018-05-01T03:17:40.112Z,0.00
2018-05-01T03:18:40.180Z,0.00
2018-05-01T03:19:40.050Z,0.00
2018-05-01T03:20:40.169Z,0.00
2018-05-01T03:21:40.102Z,0.00
2018-05-01T03:22:40.066Z,0.00
2018-05-01T03:23:40.073Z,0.00
2018-05-01T03:24:40.249Z,0.00
2018-05-01T03:25:40.275Z,0.00
2018-05-01T03:26:40.150Z,0.00
2018-05-01T03:27:40.098Z,0.00
2018-05-01T03:28:40.082Z,0.00
2018-05-01T03:29:40.028Z,0.00
2018-05-01T03:30:40.141Z,0.00
2018-05-01T03:31:40.083Z,0.00
2018-05-01T03:32:40.047Z,4.00
2018-05-01T03:33:40.054Z,0.00
2018-05-01T03:34:40.114Z,0.00
2018-05-01T03:35:40.128Z,0.00
2018-05-01T03:36:40.046Z,4.00
2018-05-01T03:37:40.057Z,4.00
2018-05-01T03:38:40.072Z,4.00
2018-05-01T03:39:40.065Z,4.00
2018-05-01T03:40:40.062Z,0.00
2018-05-01T03:41:40.310Z,4.00
2018-05-01T03:42:40.257Z,8.00
2018-05-01T03:43:40.240Z,8.00
2018-05-01T03:44:40.065Z,4.00
2018-05-01T03:45:40.015Z,4.00
2018-05-01T03:46:40.199Z,8.00
2018-05-01T03:47:40.094Z,8.00
2018-05-01T03:48:40.165Z,8.00
2018-05-01T03:49:40.156Z,4.00
2018-05-01T03:50:40.538Z,8.00
2018-05-01T03:51:40.126Z,12.00
2018-05-01T03:52:40.062Z,12.00
2018-05-01T03:53:40.162Z,12.00
2018-05-01T03:54:40.607Z,12.00
2018-05-01T03:55:40.042Z,12.00
2018-05-01T03:56:40.056Z,12.00
2018-05-01T03:57:40.069Z,12.00
2018-05-01T03:58:39.996Z,12.00
2018-05-01T03:59:40.069Z,16.00
2018-05-01T04:00:40.139Z,16.00
2018-05-01T04:01:40.222Z,16.00
2018-05-01T04:02:40.033Z,16.00
2018-05-01T04:03:40.024Z,24.00
2018-05-01T04:04:40.040Z,16.00
2018-05-01T04:05:40.079Z,24.00
2018-05-01T04:06:40.098Z,20.00
2018-05-01T04:07:40.053Z,28.00
2018-05-01T04:08:40.119Z,24.00
2018-05-01T04:09:40.056Z,24.00
2018-05-01T04:10:40.042Z,32.00
2018-05-01T04:11:40.051Z,48.00
2018-05-01T04:12:40.012Z,40.00
2018-05-01T04:13:40.021Z,40.00
2018-05-01T04:14:40.117Z,32.00
2018-05-01T04:15:40.112Z,36.00
2018-05-01T04:16:40.182Z,40.00
2018-05-01T04:17:40.045Z,32.00
2018-05-01T04:18:40.040Z,52.00
2018-05-01T04:19:40.037Z,60.00
2018-05-01T04:20:40.092Z,68.00
2018-05-01T04:21:40.131Z,68.00
2018-05-01T04:22:40.174Z,40.00
2018-05-01T04:23:40.084Z,68.00
2018-05-01T04:24:39.996Z,72.00
2018-05-01T04:25:40.076Z,72.00
2018-05-01T04:26:40.064Z,84.00
2018-05-01T04:27:40.294Z,76.00
2018-05-01T04:28:40.018Z,72.00
2018-05-01T04:29:40.032Z,72.00
2018-05-01T04:30:40.291Z,92.00
2018-05-01T04:31:40.038Z,88.00
2018-05-01T04:32:40.166Z,108.00
2018-05-01T04:33:40.093Z,76.00
2018-05-01T04:34:40.015Z,140.00
2018-05-01T04:35:40.037Z,116.00
2018-05-01T04:36:40.249Z,104.00
2018-05-01T04:37:40.183Z,176.00
2018-05-01T04:38:40.191Z,132.00
2018-05-01T04:39:40.123Z,128.00
2018-05-01T04:40:39.977Z,116.00
2018-05-01T04:41:40.072Z,144.00
2018-05-01T04:42:40.094Z,144.00
2018-05-01T04:43:40.077Z,200.00
2018-05-01T04:44:40.027Z,164.00
2018-05-01T04:45:40.100Z,204.00
2018-05-01T04:46:40.067Z,172.00
2018-05-01T04:47:40.032Z,204.00
2018-05-01T04:48:40.032Z,260.00
2018-05-01T04:49:40.026Z,244.00
2018-05-01T04:50:40.240Z,252.00
2018-05-01T04:51:40.067Z,268.00
2018-05-01T04:52:40.050Z,236.00
2018-05-01T04:53:40.035Z,248.00
2018-05-01T04:54:40.130Z,244.00
2018-05-01T04:55:40.131Z,240.00
2018-05-01T04:56:40.149Z,252.00
2018-05-01T04:57:40.013Z,320.00
2018-05-01T04:58:40.100Z,260.00
2018-05-01T04:59:40.036Z,236.00
2018-05-01T05:00:40.023Z,260.00
2018-05-01T05:01:40.185Z,316.00
2018-05-01T05:02:40.125Z,292.00
2018-05-01T05:03:40.034Z,296.00
2018-05-01T05:04:40.116Z,272.00
2018-05-01T05:05:39.971Z,320.00
2018-05-01T05:06:40.123Z,400.00
2018-05-01T05:07:40.213Z,260.00
2018-05-01T05:08:40.086Z,384.00
2018-05-01T05:09:40.040Z,292.00
2018-05-01T05:10:40.128Z,380.00
2018-05-01T05:11:40.005Z,424.00
2018-05-01T05:12:40.093Z,352.00
2018-05-01T05:13:39.970Z,316.00
2018-05-01T05:14:40.013Z,304.00
2018-05-01T05:15:40.048Z,324.00
2018-05-01T05:16:40.046Z,340.00
2018-05-01T05:17:39.977Z,384.00
2018-05-01T05:18:40.065Z,364.00
2018-05-01T05:19:40.054Z,312.00
2018-05-01T05:20:40.053Z,448.00
2018-05-01T05:21:40.030Z,376.00
2018-05-01T05:22:40.041Z,296.00
2018-05-01T05:23:40.028Z,392.00
2018-05-01T05:24:40.134Z,364.00
2018-05-01T05:25:39.968Z,316.00
2018-05-01T05:26:40.043Z,416.00
2018-05-01T05:27:39.957Z,384.00
2018-05-01T05:28:40.028Z,508.00
2018-05-01T05:29:40.014Z,452.00
2018-05-01T05:30:40.072Z,484.00
2018-05-01T05:31:39.986Z,392.00
2018-05-01T05:32:40.160Z,500.00
2018-05-01T05:33:40.037Z,456.00
2018-05-01T05:34:40.070Z,500.00
2018-05-01T05:35:40.074Z,620.00
2018-05-01T05:36:40.063Z,400.00
2018-05-01T05:37:40.067Z,416.00
2018-05-01T05:38:40.112Z,408.00
2018-05-01T05:39:40.136Z,516.00
2018-05-01T05:40:40.001Z,464.00
2018-05-01T05:41:40.022Z,656.00
2018-05-01T05:42:39.944Z,528.00
2018-05-01T05:43:39.964Z,556.00
2018-05-01T05:44:39.966Z,684.00
2018-05-01T05:45:40.056Z,592.00
2018-05-01T05:46:40.172Z,524.00
2018-05-01T05:47:39.989Z,548.00
2018-05-01T05:48:40.093Z,636.00
2018-05-01T05:49:40.064Z,544.00
2018-05-01T05:50:40.074Z,624.00
2018-05-01T05:51:40.110Z,492.00
2018-05-01T05:52:40.080Z,476.00
2018-05-01T05:53:40.000Z,632.00
2018-05-01T05:54:40.062Z,500.00
2018-05-01T05:55:39.975Z,412.00
2018-05-01T05:56:40.079Z,416.00
2018-05-01T05:57:40.102Z,508.00
2018-05-01T05:58:40.033Z,596.00
2018-05-01T05:59:40.026Z,480.00
2018-05-01T06:00:39.963Z,372.00
2018-05-01T06:01:40.135Z,356.00
2018-05-01T06:02:40.097Z,380.00
2018-05-01T06:03:40.066Z,432.00
2018-05-01T06:04:40.098Z,284.00
2018-05-01T06:05:40.087Z,468.00
2018-05-01T06:06:40.075Z,336.00
2018-05-01T06:07:40.063Z,408.00
2018-05-01T06:08:40.236Z,444.00
2018-05-01T06:09:40.129Z,408.00
2018-05-01T06:10:40.041Z,444.00
2018-05-01T06:11:40.112Z,684.00
2018-05-01T06:12:40.044Z,596.00
2018-05-01T06:13:39.998Z,680.00
2018-05-01T06:14:39.994Z,780.00
2018-05-01T06:15:39.995Z,804.00
2018-05-01T06:16:40.273Z,760.00
2018-05-01T06:17:40.045Z,804.00
2018-05-01T06:18:39.990Z,840.00
2018-05-01T06:19:40.033Z,620.00
2018-05-01T06:20:39.993Z,628.00
2018-05-01T06:21:39.995Z,648.00
2018-05-01T06:22:40.023Z,800.00
2018-05-01T06:23:40.339Z,744.00
2018-05-01T06:24:39.944Z,764.00
2018-05-01T06:25:40.066Z,732.00
2018-05-01T06:26:40.015Z,956.00
2018-05-01T06:27:40.036Z,904.00
2018-05-01T06:28:40.016Z,828.00
2018-05-01T06:29:40.026Z,712.00
2018-05-01T06:30:40.048Z,992.00
2018-05-01T06:31:40.070Z,764.00
2018-05-01T06:32:40.176Z,636.00
2018-05-01T06:33:40.595Z,644.00
2018-05-01T06:34:40.007Z,716.00
2018-05-01T06:35:40.028Z,660.00
2018-05-01T06:36:40.042Z,748.00
2018-05-01T06:37:40.009Z,816.00
2018-05-01T06:38:40.092Z,816.00
2018-05-01T06:39:40.010Z,644.00
2018-05-01T06:40:40.050Z,884.00
2018-05-01T06:41:40.017Z,1108.00
2018-05-01T06:42:40.989Z,1096.00
2018-05-01T06:43:40.085Z,896.00
2018-05-01T06:44:40.053Z,816.00
2018-05-01T06:45:40.162Z,1044.00
2018-05-01T06:46:40.196Z,892.00
2018-05-01T06:47:40.108Z,988.00
2018-05-01T06:48:40.058Z,1116.00
2018-05-01T06:49:41.628Z,1236.00
2018-05-01T06:50:40.233Z,1408.00
2018-05-01T06:51:40.038Z,1316.00
2018-05-01T06:52:40.189Z,1472.00
2018-05-01T06:53:39.985Z,960.00
2018-05-01T06:54:40.181Z,1040.00
2018-05-01T06:55:40.217Z,896.00
2018-05-01T06:56:40.056Z,844.00
2018-05-01T06:57:40.056Z,900.00
2018-05-01T06:58:39.994Z,928.00
2018-05-01T06:59:39.984Z,776.00
2018-05-01T07:00:39.965Z,924.00
2018-05-01T07:01:40.070Z,764.00
2018-05-01T07:02:40.064Z,968.00
2018-05-01T07:03:39.997Z,1264.00
2018-05-01T07:04:40.078Z,840.00
2018-05-01T07:05:40.084Z,1036.00
2018-05-01T07:06:39.945Z,1028.00
2018-05-01T07:07:40.121Z,1460.00
2018-05-01T07:08:40.250Z,1420.00
2018-05-01T07:09:40.025Z,1420.00
2018-05-01T07:10:40.000Z,1292.00
2018-05-01T07:11:39.998Z,1332.00
2018-05-01T07:12:39.995Z,1276.00
2018-05-01T07:13:40.003Z,1200.00
2018-05-01T07:14:40.049Z,1044.00
2018-05-01T07:15:40.115Z,1048.00
2018-05-01T07:16:39.985Z,1156.00
2018-05-01T07:17:40.187Z,1044.00
2018-05-01T07:18:40.193Z,952.00
2018-05-01T07:19:40.012Z,1148.00
2018-05-01T07:20:40.189Z,1112.00
2018-05-01T07:21:40.058Z,1272.00
2018-05-01T07:22:39.981Z,1608.00
2018-05-01T07:23:40.114Z,1484.00
2018-05-01T07:24:39.990Z,1576.00
2018-05-01T07:25:40.037Z,1316.00
2018-05-01T07:26:40.195Z,1632.00
2018-05-01T07:27:40.205Z,1840.00
2018-05-01T07:28:39.946Z,1256.00
2018-05-01T07:29:40.006Z,1380.00
2018-05-01T07:30:39.995Z,1168.00
2018-05-01T07:31:40.039Z,1156.00
2018-05-01T07:32:39.976Z,1092.00
2018-05-01T07:33:40.485Z,1060.00
2018-05-01T07:34:39.975Z,1416.00
2018-05-01T07:35:40.160Z,1576.00
2018-05-01T07:36:39.989Z,1704.00
2018-05-01T07:37:39.992Z,1504.00
2018-05-01T07:38:40.054Z,1532.00
2018-05-01T07:39:40.153Z,1800.00
2018-05-01T07:40:40.024Z,1672.00
2018-05-01T07:41:40.016Z,1424.00
2018-05-01T07:42:40.001Z,1612.00
2018-05-01T07:43:40.134Z,1364.00
2018-05-01T07:44:39.976Z,1528.00
2018-05-01T07:45:40.167Z,1788.00
2018-05-01T07:46:40.082Z,1600.00
2018-05-01T07:47:40.001Z,1712.00
2018-05-01T07:48:40.035Z,1604.00
2018-05-01T07:49:40.023Z,1608.00
2018-05-01T07:50:40.149Z,1640.00
2018-05-01T07:51:39.959Z,1328.00
2018-05-01T07:52:39.990Z,1600.00
2018-05-01T07:53:39.920Z,1644.00
2018-05-01T07:54:40.051Z,1704.00
2018-05-01T07:55:40.082Z,1836.00
2018-05-01T07:56:40.000Z,1876.00
2018-05-01T07:57:40.482Z,1772.00
2018-05-01T07:58:40.130Z,1944.00
2018-05-01T07:59:40.179Z,1952.00
2018-05-01T08:00:39.978Z,1756.00
2018-05-01T08:01:39.993Z,1900.00
2018-05-01T08:02:40.111Z,2164.00
2018-05-01T08:03:39.959Z,1984.00
2018-05-01T08:04:39.999Z,1916.00
2018-05-01T08:05:39.957Z,2120.00
2018-05-01T08:06:39.959Z,1832.00
2018-05-01T08:07:40.061Z,2140.00
2018-05-01T08:08:40.077Z,1968.00
2018-05-01T08:09:39.998Z,2176.00
2018-05-01T08:10:40.000Z,2328.00
2018-05-01T08:11:40.145Z,2228.00
2018-05-01T08:12:40.120Z,2248.00
2018-05-01T08:13:40.008Z,2128.00
2018-05-01T08:14:40.120Z,2124.00
2018-05-01T08:15:40.010Z,2116.00
2018-05-01T08:16:40.198Z,2160.00
2018-05-01T08:17:40.031Z,1772.00
2018-05-01T08:18:40.285Z,1612.00
2018-05-01T08:19:40.045Z,1688.00
2018-05-01T08:20:40.061Z,1676.00
2018-05-01T08:21:40.037Z,1816.00
2018-05-01T08:22:40.136Z,1772.00
2018-05-01T08:23:39.977Z,1720.00
2018-05-01T08:24:40.065Z,1520.00
2018-05-01T08:25:39.982Z,1584.00
2018-05-01T08:26:40.114Z,1752.00
2018-05-01T08:27:39.998Z,1864.00
2018-05-01T08:28:40.198Z,2032.00
2018-05-01T08:29:40.026Z,2292.00
2018-05-01T08:30:40.238Z,2648.00
2018-05-01T08:31:40.015Z,2624.00
2018-05-01T08:32:40.100Z,2492.00
2018-05-01T08:33:40.046Z,2364.00
2018-05-01T08:34:39.959Z,2100.00
2018-05-01T08:35:40.071Z,2844.00
2018-05-01T08:36:40.050Z,3312.00
2018-05-01T08:37:40.229Z,3812.00
2018-05-01T08:38:40.033Z,3312.00
2018-05-01T08:39:40.101Z,3728.00
2018-05-01T08:40:40.214Z,4424.00
2018-05-01T08:41:39.965Z,4784.00
2018-05-01T08:42:40.220Z,4948.00
2018-05-01T08:43:40.016Z,5616.00
2018-05-01T08:44:39.996Z,6116.00
2018-05-01T08:45:39.995Z,6856.00
2018-05-01T08:46:39.993Z,7672.00
2018-05-01T08:47:40.118Z,7688.00
2018-05-01T08:48:39.994Z,9568.00
2018-05-01T08:49:40.067Z,7592.00
2018-05-01T08:50:40.053Z,6572.00
2018-05-01T08:51:40.052Z,5904.00
2018-05-01T08:52:39.974Z,5960.00
2018-05-01T08:53:39.980Z,8620.00
2018-05-01T08:54:40.020Z,8376.00
2018-05-01T08:55:40.008Z,13408.00
2018-05-01T08:56:40.001Z,27680.00
2018-05-01T08:57:40.046Z,12408.00
2018-05-01T08:58:40.012Z,12544.00
2018-05-01T08:59:40.995Z,22688.00
2018-05-01T09:00:40.138Z,9512.00
2018-05-01T09:01:40.015Z,26048.00
2018-05-01T09:02:40.224Z,12616.00
2018-05-01T09:03:40.144Z,13568.00
2018-05-01T09:04:40.038Z,9832.00
2018-05-01T09:05:40.026Z,6952.00
2018-05-01T09:06:39.955Z,6356.00
2018-05-01T09:07:40.039Z,6716.00
2018-05-01T09:08:39.994Z,6956.00
2018-05-01T09:09:40.012Z,5424.00
2018-05-01T09:10:40.061Z,4292.00
2018-05-01T09:11:40.003Z,4240.00
2018-05-01T09:12:39.979Z,6496.00
2018-05-01T09:13:39.996Z,5144.00
2018-05-01T09:14:39.982Z,5232.00
2018-05-01T09:15:40.129Z,6424.00
2018-05-01T09:16:40.094Z,5012.00
2018-05-01T09:17:40.085Z,5352.00
2018-05-01T09:18:40.271Z,4808.00
2018-05-01T09:19:40.329Z,5876.00
2018-05-01T09:20:40.047Z,5852.00
2018-05-01T09:21:40.328Z,5936.00
2018-05-01T09:22:40.033Z,8148.00
2018-05-01T09:23:40.093Z,9588.00
2018-05-01T09:24:40.088Z,8952.00
2018-05-01T09:25:40.114Z,12044.00
2018-05-01T09:26:40.050Z,11620.00
2018-05-01T09:27:40.021Z,12376.00
2018-05-01T09:28:40.032Z,10448.00
2018-05-01T09:29:40.024Z,9388.00
2018-05-01T09:30:40.033Z,9540.00
2018-05-01T09:31:40.019Z,11064.00
2018-05-01T09:32:40.046Z,9040.00
2018-05-01T09:33:40.026Z,9848.00
2018-05-01T09:34:40.001Z,11552.00
2018-05-01T09:35:40.075Z,8328.00
2018-05-01T09:36:40.109Z,7360.00
2018-05-01T09:37:40.027Z,11768.00
2018-05-01T09:38:40.018Z,14808.00
2018-05-01T09:39:40.173Z,13624.00
2018-05-01T09:40:40.094Z,8512.00
2018-05-01T09:41:40.185Z,9096.00
2018-05-01T09:42:40.119Z,10304.00
2018-05-01T09:43:40.027Z,18528.00
2018-05-01T09:44:40.007Z,12356.00
2018-05-01T09:45:40.096Z,9680.00
2018-05-01T09:46:40.104Z,11864.00
2018-05-01T09:47:40.046Z,13632.00
2018-05-01T09:48:40.081Z,12864.00
2018-05-01T09:49:40.125Z,14808.00
2018-05-01T09:50:40.112Z,24896.00
2018-05-01T09:51:40.048Z,12412.00
2018-05-01T09:52:40.139Z,14556.00
2018-05-01T09:53:40.205Z,17728.00
2018-05-01T09:54:40.148Z,32736.00
2018-05-01T09:55:40.157Z,9180.00
2018-05-01T09:56:40.178Z,7204.00
2018-05-01T09:57:40.184Z,7776.00
2018-05-01T09:58:40.212Z,9520.00
2018-05-01T09:59:40.222Z,7876.00
2018-05-01T10:00:40.076Z,11704.00
2018-05-01T10:01:40.233Z,14920.00
2018-05-01T10:02:40.300Z,11760.00
2018-05-01T10:03:40.237Z,14328.00
2018-05-01T10:04:40.090Z,20480.00
2018-05-01T10:05:40.216Z,12364.00
2018-05-01T10:06:40.116Z,22240.00
2018-05-01T10:07:40.106Z,10736.00
2018-05-01T10:08:40.112Z,5744.00
2018-05-01T10:09:40.234Z,7336.00
2018-05-01T10:10:40.289Z,13024.00
2018-05-01T10:11:40.104Z,8232.00
2018-05-01T10:12:42.609Z,8152.00
2018-05-01T10:13:40.234Z,7440.00
2018-05-01T10:14:40.198Z,6124.00
2018-05-01T10:15:40.182Z,6808.00
2018-05-01T10:16:40.268Z,7904.00
2018-05-01T10:17:40.165Z,6344.00
2018-05-01T10:18:40.118Z,7608.00
2018-05-01T10:19:40.168Z,9444.00
2018-05-01T10:20:40.100Z,9272.00
2018-05-01T10:21:40.205Z,7576.00
2018-05-01T10:22:40.263Z,20064.00
2018-05-01T10:23:40.093Z,11940.00
2018-05-01T10:24:40.152Z,18400.00
2018-05-01T10:25:40.350Z,18080.00
2018-05-01T10:26:40.185Z,22848.00
2018-05-01T10:27:40.366Z,17408.00
2018-05-01T10:28:40.250Z,14048.00
2018-05-01T10:29:40.228Z,11580.00
2018-05-01T10:30:40.150Z,12620.00
2018-05-01T10:31:40.293Z,11688.00
2018-05-01T10:32:40.202Z,11996.00
2018-05-01T10:33:40.387Z,14476.00
2018-05-01T10:34:40.154Z,18304.00
2018-05-01T10:35:40.118Z,18720.00
2018-05-01T10:36:40.180Z,19136.00
2018-05-01T10:37:40.131Z,16768.00
2018-05-01T10:38:40.455Z,15688.00
2018-05-01T10:39:40.301Z,15356.00
2018-05-01T10:40:40.169Z,14676.00
2018-05-01T10:41:40.338Z,12828.00
2018-05-01T10:42:40.213Z,12472.00
2018-05-01T10:43:40.241Z,15940.00
2018-05-01T10:44:40.383Z,16260.00
2018-05-01T10:45:40.232Z,12840.00
2018-05-01T10:46:40.378Z,11424.00
2018-05-01T10:47:40.278Z,11992.00
2018-05-01T10:48:40.318Z,12800.00
2018-05-01T10:49:40.210Z,15104.00
2018-05-01T10:50:40.201Z,12024.00
2018-05-01T10:51:41.033Z,9964.00
2018-05-01T10:52:40.183Z,9916.00
2018-05-01T10:53:40.210Z,11444.00
2018-05-01T10:54:40.187Z,9780.00
2018-05-01T10:55:40.232Z,9692.00
2018-05-01T10:56:40.254Z,7992.00
2018-05-01T10:57:40.355Z,9832.00
2018-05-01T10:58:40.281Z,9648.00
2018-05-01T10:59:40.407Z,15828.00
2018-05-01T11:00:40.299Z,9664.00
2018-05-01T11:01:40.267Z,11464.00
2018-05-01T11:02:40.265Z,11604.00
2018-05-01T11:03:40.380Z,12956.00
2018-05-01T11:04:40.234Z,8632.00
2018-05-01T11:05:40.227Z,7872.00
2018-05-01T11:06:40.274Z,7580.00
2018-05-01T11:07:40.257Z,8716.00
2018-05-01T11:08:40.474Z,10120.00
2018-05-01T11:09:40.543Z,8428.00
2018-05-01T11:10:40.259Z,7920.00
2018-05-01T11:11:40.309Z,9428.00
2018-05-01T11:12:40.331Z,8528.00
2018-05-01T11:13:40.346Z,8736.00
2018-05-01T11:14:40.280Z,8720.00
2018-05-01T11:15:40.489Z,9496.00
2018-05-01T11:16:40.371Z,10004.00
2018-05-01T11:17:40.246Z,9312.00
2018-05-01T11:18:40.283Z,10216.00
2018-05-01T11:19:40.300Z,12164.00
2018-05-01T11:20:40.212Z,12384.00
2018-05-01T11:21:40.297Z,12368.00
2018-05-01T11:22:40.286Z,12964.00
2018-05-01T11:23:40.239Z,12908.00
2018-05-01T11:24:40.285Z,12900.00
2018-05-01T11:25:40.243Z,13540.00
2018-05-01T11:26:40.248Z,15500.00
2018-05-01T11:27:40.390Z,15376.00
2018-05-01T11:28:40.310Z,14196.00
2018-05-01T11:29:40.335Z,13360.00
2018-05-01T11:30:40.348Z,12932.00
2018-05-01T11:31:40.308Z,12300.00
2018-05-01T11:32:41.048Z,13068.00
2018-05-01T11:33:40.431Z,14204.00
2018-05-01T11:34:40.337Z,15372.00
2018-05-01T11:35:40.291Z,15440.00
2018-05-01T11:36:40.311Z,11968.00
2018-05-01T11:37:40.404Z,12052.00
2018-05-01T11:38:40.291Z,14400.00
2018-05-01T11:39:40.332Z,14576.00
2018-05-01T11:40:40.339Z,14240.00
2018-05-01T11:41:40.301Z,12552.00
2018-05-01T11:42:40.419Z,14072.00
2018-05-01T11:43:40.500Z,14516.00
2018-05-01T11:44:40.336Z,13896.00
2018-05-01T11:45:40.401Z,12332.00
2018-05-01T11:46:40.529Z,11776.00
2018-05-01T11:47:40.390Z,10508.00
2018-05-01T11:48:40.328Z,8272.00
2018-05-01T11:49:40.641Z,8656.00
2018-05-01T11:50:41.105Z,10268.00
2018-05-01T11:51:41.052Z,11024.00
2018-05-01T11:52:40.499Z,8892.00
2018-05-01T11:53:40.374Z,9824.00
2018-05-01T11:54:40.329Z,10884.00
2018-05-01T11:55:40.437Z,10076.00
2018-05-01T11:56:40.388Z,9284.00
2018-05-01T11:57:40.400Z,8212.00
2018-05-01T11:58:40.340Z,8428.00
2018-05-01T11:59:40.655Z,8036.00
2018-05-01T12:00:40.402Z,7768.00
2018-05-01T12:01:40.472Z,8052.00
2018-05-01T12:02:40.434Z,8304.00
2018-05-01T12:03:40.398Z,8688.00
2018-05-01T12:04:40.378Z,9204.00
2018-05-01T12:05:40.401Z,9512.00
2018-05-01T12:06:40.442Z,9872.00
2018-05-01T12:07:40.417Z,10416.00
2018-05-01T12:08:40.416Z,10408.00
2018-05-01T12:09:40.383Z,10096.00
2018-05-01T12:10:40.384Z,9732.00
2018-05-01T12:11:40.411Z,9320.00
2018-05-01T12:12:40.458Z,9140.00
2018-05-01T12:13:40.433Z,9352.00
2018-05-01T12:14:40.430Z,9104.00
2018-05-01T12:15:40.596Z,8992.00
2018-05-01T12:16:40.537Z,8684.00
2018-05-01T12:17:40.479Z,8820.00
2018-05-01T12:18:40.444Z,8736.00
2018-05-01T12:19:41.069Z,8628.00
2018-05-01T12:20:40.417Z,9032.00
2018-05-01T12:21:40.858Z,8416.00
2018-05-01T12:22:40.426Z,8176.00
2018-05-01T12:23:40.547Z,7880.00
2018-05-01T12:24:40.403Z,7864.00
2018-05-01T12:25:40.523Z,7976.00
2018-05-01T12:26:40.499Z,8064.00
2018-05-01T12:27:40.503Z,8356.00
2018-05-01T12:28:40.492Z,8584.00
2018-05-01T12:29:40.594Z,8640.00
2018-05-01T12:30:40.504Z,8648.00